Time;durP1;ratioP1;P1;durP2;ratioP2;P2;SDS_P1;SDS_P2;PMS_P1;PMS_P2;Temp;Humidity;BMP_temperature;BMP_pressure;BME280_temperature;BME280_humidity;BME280_pressure;Samples;Min_cycle;Max_cycle;Signal;HPM_P1;HPM_P2
2023/07/17 00:01:15;;;;;;;4.82;2.20;;;;;;;16.23;100.00;101373.50;4839577;29;20056;-78
2023/07/17 00:03:44;;;;;;;7.18;2.42;;;;;;;16.18;100.00;101360.28;4891042;29;20059;-77
2023/07/17 00:06:12;;;;;;;9.57;2.30;;;;;;;16.16;100.00;101369.16;4877055;29;20059;-78
2023/07/17 00:08:39;;;;;;;5.88;2.30;;;;;;;16.13;100.00;101366.56;4882992;29;20061;-77
2023/07/17 00:11:07;;;;;;;8.40;2.40;;;;;;;16.11;100.00;101371.88;4878790;29;20495;-79
2023/07/17 00:13:34;;;;;;;9.25;2.08;;;;;;;16.09;100.00;101365.69;4876018;29;20064;-79
2023/07/17 00:16:02;;;;;;;13.68;2.70;;;;;;;16.05;100.00;101363.97;4836260;29;20052;-79
2023/07/17 00:18:31;;;;;;;9.10;3.00;;;;;;;16.01;100.00;101362.25;4879666;29;20053;-78
2023/07/17 00:20:59;;;;;;;8.67;2.77;;;;;;;16.00;100.00;101370.25;4892253;29;20056;-79
2023/07/17 00:23:26;;;;;;;10.50;2.97;;;;;;;15.98;100.00;101371.13;4871887;29;20305;-78
2023/07/17 00:25:54;;;;;;;8.55;3.05;;;;;;;15.95;100.00;101363.22;4888117;29;20044;-77
2023/07/17 00:28:21;;;;;;;8.60;3.47;;;;;;;15.93;100.00;101364.97;4874016;29;20052;-78
2023/07/17 00:30:49;;;;;;;7.93;2.70;;;;;;;15.95;100.00;101360.56;4872232;29;20053;-77
2023/07/17 00:33:16;;;;;;;5.85;3.15;;;;;;;15.97;100.00;101356.09;4846373;29;20049;-78
2023/07/17 00:35:44;;;;;;;10.20;2.80;;;;;;;15.97;100.00;101364.06;4879156;29;20060;-78
2023/07/17 00:38:12;;;;;;;8.35;2.75;;;;;;;15.99;100.00;101366.69;4886182;29;20067;-78
2023/07/17 00:40:41;;;;;;;10.25;3.42;;;;;;;15.99;100.00;101358.72;4837433;29;20047;-79
2023/07/17 00:43:12;;;;;;;6.15;2.30;;;;;;;15.99;100.00;101366.69;4886015;29;20504;-78
2023/07/17 00:45:43;;;;;;;10.98;2.78;;;;;;;15.99;100.00;101364.03;4889259;29;20893;-79
2023/07/17 00:48:11;;;;;;;11.15;3.17;;;;;;;15.98;100.00;101365.81;4857078;29;20507;-78
2023/07/17 00:50:40;;;;;;;15.98;4.15;;;;;;;15.98;100.00;101365.81;4872669;29;20045;-78
2023/07/17 00:53:08;;;;;;;9.10;2.95;;;;;;;15.99;100.00;101366.69;4892334;29;20048;-79
2023/07/17 00:55:37;;;;;;;9.82;3.38;;;;;;;15.98;100.00;101362.28;4881312;29;20444;-78
2023/07/17 00:58:05;;;;;;;9.30;2.70;;;;;;;15.96;100.00;101359.63;4881901;29;20420;-79
2023/07/17 01:00:32;;;;;;;10.48;2.97;;;;;;;15.95;100.00;101363.22;4871783;29;20048;-78
2023/07/17 01:03:02;;;;;;;8.18;3.10;;;;;;;15.95;100.00;101363.22;4897648;29;20455;-78
2023/07/17 01:05:30;;;;;;;8.05;2.88;;;;;;;15.92;100.00;101357.91;4860273;29;20075;-80
2023/07/17 01:08:00;;;;;;;12.35;3.30;;;;;;;15.92;100.00;101359.69;4883426;29;20063;-79
2023/07/17 01:10:28;;;;;;;10.30;2.80;;;;;;;15.90;100.00;101357.06;4865721;29;20044;-79
2023/07/17 01:12:55;;;;;;;12.65;3.25;;;;;;;15.87;100.00;101357.06;4877536;29;20420;-78
2023/07/17 01:15:23;;;;;;;12.32;3.78;;;;;;;15.86;100.00;101363.31;4880831;29;20045;-78
2023/07/17 01:17:50;;;;;;;5.97;2.50;;;;;;;15.83;100.00;101354.47;4874265;29;20049;-78
2023/07/17 01:20:18;;;;;;;9.68;2.92;;;;;;;15.82;100.00;101350.03;4841642;29;20059;-78
2023/07/17 01:22:53;;;;;;;10.48;3.25;;;;;;;15.74;100.00;101348.34;4893623;29;20518;-78
2023/07/17 01:25:21;;;;;;;9.23;2.72;;;;;;;15.68;100.00;101368.75;4883751;29;20052;-78
2023/07/17 01:27:49;;;;;;;8.75;2.95;;;;;;;15.61;100.00;101367.94;4887447;29;20523;-78
2023/07/17 01:30:17;;;;;;;5.47;2.28;;;;;;;15.56;100.00;101360.00;4878284;29;20118;-77
2023/07/17 01:32:44;;;;;;;2.67;1.88;;;;;;;15.51;100.00;101360.94;4871674;29;20045;-78
2023/07/17 01:35:12;;;;;;;6.57;2.40;;;;;;;15.49;100.00;101366.28;4845496;29;20052;-77
2023/07/17 01:37:40;;;;;;;12.07;2.70;;;;;;;15.48;100.00;101360.97;4864855;29;20052;-80
2023/07/17 01:40:10;;;;;;;6.88;2.38;;;;;;;15.44;100.00;101352.13;4893571;29;20052;-78
2023/07/17 01:42:37;;;;;;;5.20;2.13;;;;;;;15.43;100.00;101360.16;4881171;29;20089;-78
2023/07/17 01:45:05;;;;;;;4.47;2.25;;;;;;;15.39;100.00;101367.25;4893753;29;20060;-78
2023/07/17 01:47:33;;;;;;;6.40;2.00;;;;;;;15.33;100.00;101364.63;4875129;29;20061;-78
2023/07/17 01:50:02;;;;;;;5.50;2.30;;;;;;;15.28;100.00;101363.81;4839401;29;20048;-78
2023/07/17 01:52:30;;;;;;;8.90;2.20;;;;;;;15.25;100.00;101358.50;4874769;29;20044;-78
2023/07/17 01:54:57;;;;;;;4.30;2.53;;;;;;;15.23;100.00;101358.50;4891360;29;20044;-78
2023/07/17 01:57:25;;;;;;;6.30;2.20;;;;;;;15.23;100.00;101355.88;4850923;29;20056;-79
2023/07/17 01:59:52;;;;;;;9.82;2.45;;;;;;;15.25;100.00;101363.81;4858969;29;20786;-79
2023/07/17 02:02:20;;;;;;;8.63;3.28;;;;;;;15.25;100.00;101361.16;4875305;29;20045;-79
2023/07/17 02:04:48;;;;;;;8.88;2.50;;;;;;;15.24;100.00;101356.75;4873425;29;20808;-79
2023/07/17 02:07:16;;;;;;;8.68;2.83;;;;;;;15.23;100.00;101366.47;4839099;29;20508;-78
2023/07/17 02:09:43;;;;;;;8.43;2.58;;;;;;;15.25;100.00;101367.34;4887855;29;20063;-79
2023/07/17 02:12:11;;;;;;;11.57;2.97;;;;;;;15.27;100.00;101367.34;4881695;29;20044;-79
2023/07/17 02:14:39;;;;;;;5.80;2.65;;;;;;;15.27;100.00;101367.34;4889473;29;20060;-79
2023/07/17 02:17:07;;;;;;;6.93;3.63;;;;;;;15.28;100.00;101366.47;4882905;29;20036;-79
2023/07/17 02:19:34;;;;;;;13.35;2.78;;;;;;;15.27;100.00;101367.34;4877437;29;20169;-79
2023/07/17 02:22:01;;;;;;;7.55;2.90;;;;;;;15.29;100.00;101373.53;4830433;29;20060;-78
2023/07/17 02:24:29;;;;;;;6.07;2.88;;;;;;;15.30;100.00;101367.31;4875676;29;20044;-80
2023/07/17 02:26:58;;;;;;;5.60;3.15;;;;;;;15.30;100.00;101365.53;4882509;29;20052;-79
2023/07/17 02:29:26;;;;;;;7.18;3.05;;;;;;;15.29;100.00;101365.56;4882840;29;20060;-77
2023/07/17 02:31:53;;;;;;;7.22;2.97;;;;;;;15.28;100.00;101374.44;4891360;29;20059;-79
2023/07/17 02:34:21;;;;;;;9.00;3.15;;;;;;;15.25;100.00;101370.00;4862659;29;20505;-79
2023/07/17 02:36:48;;;;;;;8.00;2.65;;;;;;;15.25;100.00;101379.75;4818990;29;20080;-79
2023/07/17 02:39:17;;;;;;;9.98;2.83;;;;;;;15.24;100.00;101378.88;4885250;29;20059;-78
2023/07/17 02:41:45;;;;;;;10.18;2.83;;;;;;;15.23;100.00;101382.41;4868302;29;20057;-77
2023/07/17 02:44:13;;;;;;;7.50;2.75;;;;;;;15.23;100.00;101379.75;4912680;29;20056;-79
2023/07/17 02:46:41;;;;;;;9.93;2.83;;;;;;;15.24;100.00;101384.19;4888066;29;20060;-79
2023/07/17 02:49:13;;;;;;;7.47;2.60;;;;;;;15.25;100.00;101379.75;4881168;29;20528;-78
2023/07/17 02:51:42;;;;;;;6.80;2.58;;;;;;;15.24;100.00;101383.31;4873359;29;20048;-79
2023/07/17 02:54:10;;;;;;;4.72;2.65;;;;;;;15.24;100.00;101386.84;4835867;29;20063;-79
2023/07/17 02:56:37;;;;;;;7.95;3.10;;;;;;;15.23;100.00;101389.50;4870951;29;20064;-80
2023/07/17 02:59:05;;;;;;;7.25;2.45;;;;;;;15.21;100.00;101387.72;4865315;29;20052;-79
2023/07/17 03:01:32;;;;;;;8.48;3.22;;;;;;;15.19;100.00;101396.59;4862291;29;20048;-79
2023/07/17 03:04:01;;;;;;;7.15;2.90;;;;;;;15.15;100.00;101390.44;4874207;29;20056;-79
2023/07/17 03:06:29;;;;;;;10.00;3.80;;;;;;;15.12;100.00;101395.78;4880386;29;20055;-78
2023/07/17 03:08:57;;;;;;;10.55;2.33;;;;;;;15.10;100.00;101391.34;4813857;29;20057;-77
2023/07/17 03:11:24;;;;;;;6.80;2.65;;;;;;;15.07;100.00;101394.06;4881613;29;20057;-78
2023/07/17 03:13:52;;;;;;;5.20;2.10;;;;;;;15.03;100.00;101398.50;4888933;29;20064;-79
2023/07/17 03:16:19;;;;;;;6.10;2.30;;;;;;;14.97;100.00;101386.16;4883690;29;20052;-77
2023/07/17 03:18:46;;;;;;;10.30;2.60;;;;;;;14.96;100.00;101399.41;4876497;29;20059;-78
2023/07/17 03:21:16;;;;;;;7.10;2.80;;;;;;;14.91;100.00;101396.78;4884567;29;20053;-78
2023/07/17 03:23:44;;;;;;;8.32;2.47;;;;;;;14.90;100.00;101394.16;4864662;29;20055;-78
2023/07/17 03:26:11;;;;;;;5.57;2.78;;;;;;;14.88;100.00;101398.59;4885667;29;20049;-78
2023/07/17 03:28:39;;;;;;;3.90;2.25;;;;;;;14.87;100.00;101396.81;4881458;29;20060;-78
2023/07/17 03:31:07;;;;;;;10.27;2.70;;;;;;;14.85;100.00;101401.25;4864602;29;20048;-79
2023/07/17 03:33:41;;;;;;;9.32;3.10;;;;;;;14.83;100.00;101395.94;4902134;29;20184;-79
2023/07/17 03:36:09;;;;;;;7.95;2.72;;;;;;;14.82;100.00;101381.81;4881873;29;20047;-79
2023/07/17 03:38:37;;;;;;;9.20;2.63;;;;;;;14.82;100.00;101389.78;4855092;29;20045;-77
2023/07/17 03:41:05;;;;;;;6.30;3.20;;;;;;;14.80;100.00;101383.59;4879505;29;20049;-78
2023/07/17 03:43:32;;;;;;;5.03;2.53;;;;;;;14.77;100.00;101393.34;4877822;29;20057;-79
2023/07/17 03:46:01;;;;;;;6.82;2.67;;;;;;;14.73;100.00;101383.63;4877324;29;20059;-78
2023/07/17 03:48:29;;;;;;;8.50;2.58;;;;;;;14.72;100.00;101390.69;4879331;29;20527;-78
2023/07/17 03:50:58;;;;;;;4.57;2.42;;;;;;;14.71;100.00;101388.94;4895293;29;20052;-78
2023/07/17 03:53:30;;;;;;;5.55;2.15;;;;;;;14.73;100.00;101391.59;4855541;29;20040;-78
2023/07/17 03:55:57;;;;;;;11.95;2.85;;;;;;;14.70;100.00;101392.47;4885026;29;20053;-79
2023/07/17 03:58:24;;;;;;;5.43;2.65;;;;;;;14.69;100.00;101401.34;4876785;29;20052;-78
2023/07/17 04:00:52;;;;;;;6.78;2.92;;;;;;;14.68;100.00;101406.66;4884118;29;20041;-78
2023/07/17 04:03:20;;;;;;;6.38;2.15;;;;;;;14.66;100.00;101398.69;4875365;29;20048;-78
2023/07/17 04:05:50;;;;;;;6.72;2.83;;;;;;;14.66;100.00;101406.66;4875085;29;20060;-79
2023/07/17 04:08:17;;;;;;;6.72;2.25;;;;;;;14.64;100.00;101403.13;4885543;29;20079;-77
2023/07/17 04:10:45;;;;;;;7.53;3.20;;;;;;;14.64;100.00;101407.56;4818317;29;20068;-78
2023/07/17 04:13:13;;;;;;;8.15;2.58;;;;;;;14.63;100.00;101412.00;4864216;29;20127;-78
2023/07/17 04:15:41;;;;;;;11.30;2.75;;;;;;;14.62;100.00;101411.09;4860757;29;20059;-78
2023/07/17 04:18:13;;;;;;;8.27;2.83;;;;;;;14.62;100.00;101421.69;4877091;29;20064;-79
2023/07/17 04:20:41;;;;;;;7.32;2.20;;;;;;;14.60;100.00;101412.00;4884566;29;20075;-79
2023/07/17 04:23:10;;;;;;;9.20;2.95;;;;;;;14.62;100.00;101415.50;4869218;29;20067;-79
2023/07/17 04:25:42;;;;;;;7.82;2.97;;;;;;;14.61;100.00;101414.66;4834674;29;20060;-79
2023/07/17 04:28:19;;;;;;;7.38;3.08;;;;;;;14.65;100.00;101417.25;4903852;29;20048;-79
2023/07/17 04:30:54;;;;;;;6.32;2.85;;;;;;;15.18;100.00;101413.44;4858907;29;20052;-77
2023/07/17 04:33:21;;;;;;;7.00;2.67;;;;;;;15.71;100.00;101417.44;4896150;29;20040;-78
2023/07/17 04:35:49;;;;;;;8.48;2.80;;;;;;;16.08;100.00;101417.09;4893132;29;20061;-77
2023/07/17 04:38:18;;;;;;;9.35;3.15;;;;;;;16.46;100.00;101418.44;4851650;29;20063;-79
2023/07/17 04:40:46;;;;;;;6.05;2.00;;;;;;;16.98;100.00;101427.56;4824078;29;20068;-79
2023/07/17 04:43:13;;;;;;;5.30;2.08;;;;;;;17.57;100.00;101416.03;4890927;29;20061;-79
2023/07/17 04:45:42;;;;;;;7.05;2.40;;;;;;;18.04;100.00;101417.88;4877620;29;20060;-77
2023/07/17 04:48:15;;;;;;;5.63;1.85;;;;;;;18.41;100.00;101416.25;4895679;29;20063;-78
2023/07/17 04:50:45;;;;;;;5.13;2.13;;;;;;;18.81;100.00;101410.09;4876752;29;20067;-78
2023/07/17 04:53:13;;;;;;;6.22;2.05;;;;;;;19.19;100.00;101405.72;4874406;29;20052;-78
2023/07/17 04:55:41;;;;;;;6.65;2.15;;;;;;;19.58;100.00;101416.31;4878817;29;20056;-78
2023/07/17 04:58:08;;;;;;;4.47;2.30;;;;;;;19.93;100.00;101403.88;4835316;29;20061;-80
2023/07/17 05:00:39;;;;;;;7.60;2.08;;;;;;;20.22;100.00;101406.59;4882831;29;20053;-77
2023/07/17 05:03:07;;;;;;;6.38;2.03;;;;;;;20.57;100.00;101415.44;4860480;29;20048;-78
2023/07/17 05:05:35;;;;;;;8.50;2.17;;;;;;;21.00;100.00;101414.16;4891011;29;20792;-78
2023/07/17 05:08:03;;;;;;;6.93;2.50;;;;;;;21.39;100.00;101419.16;4877004;29;20075;-78
2023/07/17 05:10:32;;;;;;;4.13;2.10;;;;;;;21.79;100.00;101417.84;4865630;29;20049;-78
2023/07/17 05:12:59;;;;;;;4.95;2.03;;;;;;;21.94;100.00;101426.28;4847902;29;20067;-78
2023/07/17 05:15:27;;;;;;;5.13;2.20;;;;;;;22.07;100.00;101427.59;4860095;29;20734;-78
2023/07/17 05:17:55;;;;;;;8.30;2.95;;;;;;;22.06;100.00;101414.22;4872042;29;20095;-78
2023/07/17 05:20:24;;;;;;;7.65;2.10;;;;;;;21.95;100.00;101420.00;4856936;29;20079;-77
2023/07/17 05:22:52;;;;;;;6.03;2.33;;;;;;;21.87;100.00;101422.97;4870583;29;20045;-78
2023/07/17 05:25:21;;;;;;;6.65;2.15;;;;;;;22.08;100.00;101418.63;4847603;29;20476;-77
2023/07/17 05:27:48;;;;;;;3.63;2.35;;;;;;;22.14;100.00;101413.03;4819326;29;20060;-77
2023/07/17 05:30:16;;;;;;;6.85;2.55;;;;;;;22.28;100.00;101419.75;4872429;29;20044;-77
2023/07/17 05:32:44;;;;;;;4.68;2.00;;;;;;;22.48;100.00;101417.19;4888504;29;20048;-78
2023/07/17 05:35:12;;;;;;;7.60;2.83;;;;;;;22.63;100.00;101415.75;4850587;29;20055;-79
2023/07/17 05:37:39;;;;;;;7.95;2.58;;;;;;;22.68;100.00;101421.81;4871060;29;20134;-77
2023/07/17 05:40:08;;;;;;;6.68;2.22;;;;;;;22.70;100.00;101422.66;4842644;29;20056;-82
2023/07/17 05:42:35;;;;;;;6.85;2.75;;;;;;;22.81;100.00;101424.91;4853681;29;20045;-77
2023/07/17 05:45:04;;;;;;;5.10;2.13;;;;;;;22.96;100.00;101428.78;4864219;29;20060;-77
2023/07/17 05:47:31;;;;;;;5.07;2.13;;;;;;;23.14;100.00;101424.56;4889028;29;20044;-78
2023/07/17 05:50:00;;;;;;;6.32;2.20;;;;;;;23.27;100.00;101428.50;4877049;29;20059;-77
2023/07/17 05:52:27;;;;;;;6.07;2.28;;;;;;;23.28;100.00;101435.59;4859560;29;20053;-77
2023/07/17 05:54:54;;;;;;;7.18;2.20;;;;;;;23.39;100.00;101435.19;4864642;29;20057;-78
2023/07/17 05:57:23;;;;;;;8.85;2.45;;;;;;;23.54;100.00;101439.03;4827101;29;20424;-78
2023/07/17 05:59:50;;;;;;;5.25;2.25;;;;;;;23.59;98.98;101438.84;4879104;29;20051;-77
2023/07/17 06:02:18;;;;;;;7.22;2.55;;;;;;;23.53;98.01;101438.19;4874814;29;20045;-77
2023/07/17 06:04:46;;;;;;;5.30;2.50;;;;;;;23.64;96.67;101459.22;4860831;29;20504;-77
2023/07/17 06:07:13;;;;;;;5.95;2.67;;;;;;;23.53;96.32;101456.13;4883946;29;20051;-77
2023/07/17 06:09:41;;;;;;;5.55;2.13;;;;;;;23.53;94.73;101458.81;4871413;29;20060;-78
2023/07/17 06:12:10;;;;;;;6.22;2.50;;;;;;;23.38;94.66;101462.13;4872824;29;20397;-78
2023/07/17 06:14:37;;;;;;;8.07;2.40;;;;;;;23.00;95.33;101464.50;4839008;29;20048;-77
2023/07/17 06:17:05;;;;;;;8.13;2.95;;;;;;;22.50;95.52;101463.69;4891477;29;20063;-77
2023/07/17 06:19:32;;;;;;;7.60;2.72;;;;;;;22.02;96.69;101472.50;4882966;29;20044;-79
2023/07/17 06:22:00;;;;;;;5.25;2.38;;;;;;;21.46;99.05;101470.81;4862452;29;20048;-78
2023/07/17 06:24:27;;;;;;;5.80;2.80;;;;;;;21.17;100.00;101474.38;4868760;29;20071;-78
2023/07/17 06:26:55;;;;;;;4.15;2.42;;;;;;;20.98;100.00;101469.59;4858540;29;20052;-78
2023/07/17 06:29:23;;;;;;;8.23;3.05;;;;;;;20.95;100.00;101469.69;4838696;29;20496;-78
2023/07/17 06:31:51;;;;;;;9.45;2.80;;;;;;;20.82;100.00;101471.84;4857601;29;20404;-78
2023/07/17 06:34:18;;;;;;;6.20;2.83;;;;;;;20.61;100.00;101480.50;4881607;29;20067;-78
2023/07/17 06:36:49;;;;;;;10.65;3.78;;;;;;;20.47;100.00;101478.16;4847786;29;20065;-79
2023/07/17 06:39:17;;;;;;;9.95;3.13;;;;;;;20.44;100.00;101473.78;4886446;29;20514;-79
2023/07/17 06:41:47;;;;;;;13.00;3.90;;;;;;;20.43;100.00;101479.19;4877712;29;20052;-78
2023/07/17 06:44:15;;;;;;;7.25;3.22;;;;;;;20.47;100.00;101474.63;4826445;29;20048;-78
2023/07/17 06:46:43;;;;;;;12.13;4.00;;;;;;;20.51;100.00;101474.50;4884345;29;20067;-77
2023/07/17 06:49:11;;;;;;;8.50;3.28;;;;;;;20.58;100.00;101465.34;4894406;29;20068;-78
2023/07/17 06:51:38;;;;;;;11.85;4.13;;;;;;;20.61;100.00;101472.47;4893363;29;20064;-77
2023/07/17 06:54:06;;;;;;;7.78;3.08;;;;;;;20.68;100.00;101468.72;4867429;29;20056;-78
2023/07/17 06:56:33;;;;;;;11.30;4.45;;;;;;;20.63;100.00;101476.00;4872923;29;20060;-78
2023/07/17 06:59:01;;;;;;;11.80;3.83;;;;;;;20.46;100.00;101479.09;4867415;29;20052;-79
2023/07/17 07:01:28;;;;;;;13.05;4.03;;;;;;;20.43;100.00;101481.84;4833859;29;20073;-78
2023/07/17 07:03:56;;;;;;;8.02;3.40;;;;;;;20.45;100.00;101480.03;4872055;29;20049;-78
2023/07/17 07:06:23;;;;;;;11.57;4.35;;;;;;;20.39;100.00;101480.19;4900599;29;20047;-79
2023/07/17 07:08:53;;;;;;;7.28;3.70;;;;;;;20.35;100.00;101478.53;4880005;29;20060;-78
2023/07/17 07:11:20;;;;;;;6.95;3.42;;;;;;;20.11;100.00;101488.09;4885337;29;20064;-78
2023/07/17 07:13:47;;;;;;;6.50;3.60;;;;;;;19.96;100.00;101489.38;4888209;29;20048;-78
2023/07/17 07:16:15;;;;;;;8.02;3.85;;;;;;;19.77;100.00;101484.50;4857035;29;20076;-78
2023/07/17 07:18:44;;;;;;;11.32;4.30;;;;;;;19.75;100.00;101488.97;4891269;29;20048;-78
2023/07/17 07:21:13;;;;;;;8.10;3.22;;;;;;;19.69;100.00;101486.44;4885689;29;20052;-78
2023/07/17 07:23:40;;;;;;;9.30;3.90;;;;;;;19.68;100.00;101484.69;4860756;29;20519;-78
2023/07/17 07:26:07;;;;;;;9.18;3.42;;;;;;;19.69;100.00;101491.78;4876337;29;20064;-79
2023/07/17 07:28:35;;;;;;;8.43;4.18;;;;;;;19.79;100.00;101490.69;4885395;29;20083;-79
2023/07/17 07:31:04;;;;;;;12.93;4.30;;;;;;;19.90;100.00;101508.25;4828723;29;27238;-78
2023/07/17 07:33:31;;;;;;;12.07;4.15;;;;;;;19.88;100.00;101496.72;4863812;29;20049;-78
2023/07/17 07:36:00;;;;;;;11.57;4.07;;;;;;;19.80;100.00;101505.81;4875758;29;20060;-79
2023/07/17 07:38:27;;;;;;;10.25;4.20;;;;;;;19.80;100.00;101520.97;4862650;29;20049;-79
2023/07/17 07:40:57;;;;;;;8.93;3.55;;;;;;;19.77;100.00;101531.72;4875382;29;20087;-79
2023/07/17 07:43:27;;;;;;;8.68;4.15;;;;;;;19.56;100.00;101533.97;4875244;29;20385;-80
2023/07/17 07:45:54;;;;;;;5.00;2.22;;;;;;;19.43;100.00;101529.81;4865764;29;20893;-78
2023/07/17 07:48:22;;;;;;;8.23;3.45;;;;;;;19.43;100.00;101525.38;4827991;29;20053;-79
2023/07/17 07:50:49;;;;;;;8.32;3.22;;;;;;;19.46;100.00;101527.09;4890629;29;20059;-78
2023/07/17 07:53:17;;;;;;;6.82;3.38;;;;;;;19.38;100.00;101527.25;4859386;29;20049;-79
2023/07/17 07:55:44;;;;;;;11.65;3.55;;;;;;;19.34;100.00;101530.03;4890363;29;20520;-79
2023/07/17 07:58:11;;;;;;;9.27;3.70;;;;;;;19.24;100.00;101526.69;4885512;29;20057;-78
2023/07/17 08:00:41;;;;;;;11.50;3.97;;;;;;;19.11;100.00;101541.22;4872451;29;20052;-78
2023/07/17 08:03:08;;;;;;;9.35;3.42;;;;;;;18.93;100.00;101539.81;4836289;29;20052;-78
2023/07/17 08:05:36;;;;;;;9.50;3.70;;;;;;;18.76;100.00;101549.00;4873498;29;20063;-78
2023/07/17 08:08:05;;;;;;;9.23;3.67;;;;;;;18.65;100.00;101545.69;4869772;29;20060;-78
2023/07/17 08:10:34;;;;;;;5.82;3.53;;;;;;;18.61;100.00;101547.53;4897159;29;20052;-78
2023/07/17 08:13:02;;;;;;;6.93;3.22;;;;;;;18.74;100.00;101557.97;4889716;29;20068;-78
2023/07/17 08:15:30;;;;;;;8.38;3.35;;;;;;;18.81;100.00;101555.19;4866068;29;20060;-78
2023/07/17 08:17:57;;;;;;;7.97;3.22;;;;;;;18.87;100.00;101544.38;4838586;29;20057;-78
2023/07/17 08:20:25;;;;;;;8.70;3.15;;;;;;;18.98;100.00;101552.19;4902096;29;20059;-78
2023/07/17 08:22:55;;;;;;;9.13;3.22;;;;;;;19.11;100.00;101543.88;4877718;29;20044;-78
2023/07/17 08:25:25;;;;;;;14.25;4.45;;;;;;;19.16;100.00;101547.34;4833955;29;20053;-78
2023/07/17 08:27:54;;;;;;;9.45;3.22;;;;;;;19.28;100.00;101547.06;4886240;29;20055;-79
2023/07/17 08:30:21;;;;;;;7.45;2.60;;;;;;;19.32;100.00;101550.56;4892988;29;20416;-78
2023/07/17 08:32:49;;;;;;;6.32;2.92;;;;;;;19.31;100.00;101547.00;4827387;29;20516;-78
2023/07/17 08:35:16;;;;;;;11.60;3.83;;;;;;;19.32;100.00;101547.88;4893623;29;20048;-78
2023/07/17 08:37:44;;;;;;;6.88;2.90;;;;;;;19.36;100.00;101557.63;4861644;29;20051;-78
2023/07/17 08:40:13;;;;;;;6.85;3.10;;;;;;;19.48;100.00;101558.19;4884542;29;20538;-77
2023/07/17 08:42:45;;;;;;;7.43;3.25;;;;;;;19.58;100.00;101561.53;4882149;29;20060;-79
2023/07/17 08:45:14;;;;;;;8.70;3.38;;;;;;;19.54;100.00;101549.16;4883888;29;20067;-78
2023/07/17 08:47:42;;;;;;;10.05;3.38;;;;;;;19.56;100.00;101552.69;4891910;29;20063;-77
2023/07/17 08:50:11;;;;;;;9.38;3.17;;;;;;;19.63;100.00;101556.09;4851499;29;20456;-79
2023/07/17 08:52:39;;;;;;;10.07;3.83;;;;;;;19.79;100.00;101557.53;4869206;29;20045;-78
2023/07/17 08:55:07;;;;;;;8.70;3.72;;;;;;;19.88;100.00;101552.88;4882505;29;20052;-78
2023/07/17 08:57:35;;;;;;;6.32;3.83;;;;;;;20.01;100.00;101544.50;4843726;29;20056;-79
2023/07/17 09:00:04;;;;;;;10.57;3.33;;;;;;;19.99;100.00;101554.38;4890710;29;20637;-79
2023/07/17 09:02:32;;;;;;;8.32;3.22;;;;;;;19.88;100.00;101561.78;4886097;29;20075;-79
2023/07/17 09:05:00;;;;;;;5.72;2.97;;;;;;;19.65;100.00;101578.34;4854159;29;20101;-77
2023/07/17 09:07:28;;;;;;;6.50;2.75;;;;;;;19.38;100.00;101578.03;4868219;29;20059;-78
2023/07/17 09:10:35;;;;;;;9.02;3.35;;;;;;;19.22;100.00;101581.94;4888897;29;20049;-79
2023/07/17 09:13:04;;;;;;;5.50;2.60;;;;;;;19.08;100.00;101583.13;4877974;29;20044;-78
2023/07/17 09:15:33;;;;;;;5.05;2.50;;;;;;;19.00;100.00;101592.22;4895879;29;20072;-79
2023/07/17 09:18:01;;;;;;;6.47;2.83;;;;;;;18.94;100.00;101578.97;4888012;29;20045;-79
2023/07/17 09:20:29;;;;;;;7.70;2.78;;;;;;;18.89;100.00;101595.09;4863463;29;20055;-78
2023/07/17 09:23:00;;;;;;;6.60;2.50;;;;;;;18.84;100.00;101591.63;4889236;29;20059;-78
2023/07/17 09:25:29;;;;;;;10.68;2.33;;;;;;;18.73;100.00;101599.78;4869282;29;20056;-77
2023/07/17 09:27:58;;;;;;;6.93;2.60;;;;;;;18.70;100.00;101611.41;4875992;29;20059;-78
2023/07/17 09:30:26;;;;;;;7.97;2.75;;;;;;;18.82;100.00;101593.44;4876912;29;20067;-78
2023/07/17 09:33:06;;;;;;;5.22;2.53;;;;;;;18.95;100.00;101599.44;4867554;29;20056;-77
2023/07/17 09:35:35;;;;;;;6.38;2.80;;;;;;;19.07;100.00;101594.72;4851423;29;20051;-77
2023/07/17 09:38:09;;;;;;;7.95;2.65;;;;;;;19.24;100.00;101596.16;4882977;29;20064;-78
2023/07/17 09:40:37;;;;;;;4.75;2.38;;;;;;;19.45;100.00;101600.16;4875657;29;20053;-78
2023/07/17 09:43:05;;;;;;;7.50;2.30;;;;;;;19.62;100.00;101602.44;4885050;29;20535;-78
2023/07/17 09:45:33;;;;;;;7.10;2.17;;;;;;;19.80;100.00;101596.72;4891288;29;20068;-78
2023/07/17 09:48:02;;;;;;;7.80;2.70;;;;;;;20.00;100.00;101598.03;4888028;29;20814;-78
2023/07/17 09:50:30;;;;;;;7.45;2.60;;;;;;;20.20;100.00;101601.09;4836836;29;20060;-78
2023/07/17 09:52:59;;;;;;;4.80;2.33;;;;;;;20.27;100.00;101606.31;4890469;29;20792;-78
2023/07/17 09:55:33;;;;;;;6.95;2.15;;;;;;;20.28;100.00;101608.06;4878554;29;20060;-78
2023/07/17 09:58:04;;;;;;;5.88;2.38;;;;;;;20.30;100.00;101624.97;4869050;29;20048;-77
2023/07/17 10:00:32;;;;;;;5.20;1.90;;;;;;;20.23;98.56;101619.78;4878482;29;20514;-77
2023/07/17 10:03:21;;;;;;;2.83;1.65;;;;;;;20.34;92.12;101626.63;4854503;29;20053;-78
2023/07/17 10:05:50;;;;;;;3.42;1.60;;;;;;;20.48;95.53;101616.47;4839430;29;21001;-78
2023/07/17 10:08:18;;;;;;;7.15;2.03;;;;;;;20.62;93.28;101617.03;4888892;29;20060;-77
2023/07/17 10:10:46;;;;;;;4.75;2.35;;;;;;;20.69;92.47;101615.06;4863421;29;20469;-78
2023/07/17 10:13:14;;;;;;;8.50;1.80;;;;;;;20.68;92.92;101617.78;4874745;29;20420;-79
2023/07/17 10:15:42;;;;;;;6.28;1.80;;;;;;;20.68;90.60;101629.38;4840751;29;20048;-77
2023/07/17 10:18:12;;;;;;;4.38;1.83;;;;;;;20.56;90.10;101618.94;4873127;29;20809;-78
2023/07/17 10:20:51;;;;;;;3.55;1.80;;;;;;;20.61;89.91;101625.97;4852437;29;20059;-77
2023/07/17 10:23:26;;;;;;;6.95;1.95;;;;;;;20.72;91.18;101625.69;4876248;29;20052;-77
2023/07/17 10:26:13;;;;;;;8.25;2.13;;;;;;;20.81;87.75;101629.91;4879946;29;20053;-77
2023/07/17 10:28:41;;;;;;;6.28;1.90;;;;;;;20.87;85.33;101627.09;4885255;29;20060;-78
2023/07/17 10:31:27;;;;;;;4.53;1.83;;;;;;;20.89;87.36;101632.38;4865660;29;20397;-78
2023/07/17 10:34:01;;;;;;;3.90;1.67;;;;;;;20.81;81.37;101635.25;4886417;29;20055;-77
2023/07/17 10:36:40;;;;;;;3.33;1.63;;;;;;;20.92;86.72;101632.31;4870023;29;20036;-79
2023/07/17 10:39:11;;;;;;;6.13;1.70;;;;;;;20.97;87.36;101639.28;4892954;29;20075;-77
2023/07/17 10:41:38;;;;;;;2.60;1.63;;;;;;;20.82;86.94;101635.22;4883830;29;20068;-78
2023/07/17 10:44:08;;;;;;;3.03;2.30;;;;;;;20.66;86.56;101639.22;4878174;29;20044;-78
2023/07/17 10:46:38;;;;;;;6.72;1.95;;;;;;;20.60;85.77;101629.59;4862797;29;20060;-78
2023/07/17 10:49:06;;;;;;;5.88;1.60;;;;;;;20.60;86.04;101632.28;4870263;29;20068;-78
2023/07/17 10:51:42;;;;;;;3.47;1.60;;;;;;;20.68;83.45;101640.09;4870231;29;20051;-77
2023/07/17 10:54:11;;;;;;;2.53;1.30;;;;;;;20.84;82.79;101635.19;4889704;29;20051;-77
2023/07/17 10:56:38;;;;;;;4.50;0.80;;;;;;;21.03;82.64;101647.16;4887955;29;21103;-77
2023/07/17 10:59:06;;;;;;;1.80;1.33;;;;;;;21.19;81.88;101641.34;4872465;29;20048;-77
2023/07/17 11:01:33;;;;;;;2.28;1.67;;;;;;;21.14;81.14;101641.50;4870791;29;20057;-78
2023/07/17 11:04:01;;;;;;;5.22;1.75;;;;;;;21.02;81.09;101639.19;4877803;29;20534;-77
2023/07/17 11:06:28;;;;;;;5.57;1.73;;;;;;;20.99;82.59;101648.16;4852602;29;20048;-77
2023/07/17 11:08:56;;;;;;;5.65;1.58;;;;;;;21.00;82.59;101657.06;4865937;29;20052;-77
2023/07/17 11:11:23;;;;;;;5.53;1.85;;;;;;;20.88;83.12;101660.97;4874240;29;20072;-78
2023/07/17 11:13:54;;;;;;;3.50;1.60;;;;;;;20.88;83.21;101649.38;4863217;29;20048;-77
2023/07/17 11:16:22;;;;;;;3.10;1.50;;;;;;;20.78;83.08;101652.31;4875679;29;20056;-77
2023/07/17 11:18:52;;;;;;;3.75;1.70;;;;;;;20.66;83.30;101652.63;4873841;29;20130;-77
2023/07/17 11:21:23;;;;;;;1.65;1.25;;;;;;;20.52;83.78;101660.97;4891625;29;20056;-76
2023/07/17 11:23:55;;;;;;;6.50;1.60;;;;;;;20.54;83.63;101664.50;4852276;29;20638;-77